sensor_id;sensor_type;location;lat;lon;timestamp;P1;durP1;ratioP1;P2;durP2;ratioP2
55031;SDS011;40928;51.076;7.950;2023-12-20T00:01:17;3.88;;;2.83;;
55031;SDS011;40928;51.076;7.950;2023-12-20T00:03:42;7.90;;;4.45;;
55031;SDS011;40928;51.076;7.950;2023-12-20T00:06:08;9.23;;;5.30;;
55031;SDS011;40928;51.076;7.950;2023-12-20T00:08:33;7.05;;;4.43;;
55031;SDS011;40928;51.076;7.950;2023-12-20T00:10:58;6.30;;;4.03;;
55031;SDS011;40928;51.076;7.950;2023-12-20T00:13:24;7.30;;;4.57;;
55031;SDS011;40928;51.076;7.950;2023-12-20T00:15:49;7.20;;;4.35;;
55031;SDS011;40928;51.076;7.950;2023-12-20T00:18:15;6.03;;;4.03;;
55031;SDS011;40928;51.076;7.950;2023-12-20T00:20:40;6.13;;;4.22;;
55031;SDS011;40928;51.076;7.950;2023-12-20T00:23:06;6.13;;;4.07;;
55031;SDS011;40928;51.076;7.950;2023-12-20T00:25:33;9.02;;;4.60;;
55031;SDS011;40928;51.076;7.950;2023-12-20T00:28:00;6.53;;;4.75;;
55031;SDS011;40928;51.076;7.950;2023-12-20T00:30:25;6.50;;;4.30;;
55031;SDS011;40928;51.076;7.950;2023-12-20T00:32:51;7.28;;;4.07;;
55031;SDS011;40928;51.076;7.950;2023-12-20T00:35:16;6.95;;;4.75;;
55031;SDS011;40928;51.076;7.950;2023-12-20T00:37:42;7.90;;;4.95;;
55031;SDS011;40928;51.076;7.950;2023-12-20T00:40:08;9.48;;;5.07;;
55031;SDS011;40928;51.076;7.950;2023-12-20T00:42:34;9.77;;;5.35;;
55031;SDS011;40928;51.076;7.950;2023-12-20T00:45:01;10.57;;;5.35;;
55031;SDS011;40928;51.076;7.950;2023-12-20T00:47:27;12.75;;;6.05;;
55031;SDS011;40928;51.076;7.950;2023-12-20T00:49:53;17.98;;;7.32;;
55031;SDS011;40928;51.076;7.950;2023-12-20T00:52:18;9.13;;;5.70;;
55031;SDS011;40928;51.076;7.950;2023-12-20T00:54:44;9.05;;;5.63;;
55031;SDS011;40928;51.076;7.950;2023-12-20T00:57:10;8.27;;;4.80;;
55031;SDS011;40928;51.076;7.950;2023-12-20T00:59:35;7.10;;;3.92;;
55031;SDS011;40928;51.076;7.950;2023-12-20T01:02:01;7.13;;;4.53;;
55031;SDS011;40928;51.076;7.950;2023-12-20T01:04:26;5.63;;;3.55;;
55031;SDS011;40928;51.076;7.950;2023-12-20T01:06:52;4.50;;;2.78;;
55031;SDS011;40928;51.076;7.950;2023-12-20T01:09:18;5.38;;;3.22;;
55031;SDS011;40928;51.076;7.950;2023-12-20T01:11:44;5.57;;;2.53;;
55031;SDS011;40928;51.076;7.950;2023-12-20T01:14:09;6.65;;;2.70;;
55031;SDS011;40928;51.076;7.950;2023-12-20T01:16:35;3.90;;;2.30;;
55031;SDS011;40928;51.076;7.950;2023-12-20T01:19:00;3.53;;;2.20;;
55031;SDS011;40928;51.076;7.950;2023-12-20T01:21:26;3.20;;;2.00;;
55031;SDS011;40928;51.076;7.950;2023-12-20T01:23:51;3.42;;;2.20;;
55031;SDS011;40928;51.076;7.950;2023-12-20T01:26:17;4.47;;;2.60;;
55031;SDS011;40928;51.076;7.950;2023-12-20T01:28:42;10.05;;;4.25;;
55031;SDS011;40928;51.076;7.950;2023-12-20T01:31:08;3.33;;;1.58;;
55031;SDS011;40928;51.076;7.950;2023-12-20T01:33:33;2.22;;;1.40;;
55031;SDS011;40928;51.076;7.950;2023-12-20T01:35:59;1.48;;;0.68;;
55031;SDS011;40928;51.076;7.950;2023-12-20T01:38:25;1.65;;;0.90;;
55031;SDS011;40928;51.076;7.950;2023-12-20T01:40:50;1.80;;;1.00;;
55031;SDS011;40928;51.076;7.950;2023-12-20T01:43:16;1.00;;;0.60;;
55031;SDS011;40928;51.076;7.950;2023-12-20T01:45:41;2.13;;;0.70;;
55031;SDS011;40928;51.076;7.950;2023-12-20T01:48:07;1.55;;;1.00;;
55031;SDS011;40928;51.076;7.950;2023-12-20T01:50:35;1.73;;;0.90;;
55031;SDS011;40928;51.076;7.950;2023-12-20T01:53:01;4.25;;;2.08;;
55031;SDS011;40928;51.076;7.950;2023-12-20T01:55:27;3.50;;;1.70;;
55031;SDS011;40928;51.076;7.950;2023-12-20T01:57:56;7.70;;;1.77;;
55031;SDS011;40928;51.076;7.950;2023-12-20T02:00:23;4.78;;;1.60;;
55031;SDS011;40928;51.076;7.950;2023-12-20T02:02:52;4.30;;;1.33;;
55031;SDS011;40928;51.076;7.950;2023-12-20T02:05:20;7.03;;;1.52;;
55031;SDS011;40928;51.076;7.950;2023-12-20T02:07:46;2.30;;;1.45;;
55031;SDS011;40928;51.076;7.950;2023-12-20T02:10:12;7.07;;;2.30;;
55031;SDS011;40928;51.076;7.950;2023-12-20T02:12:38;4.97;;;2.00;;
55031;SDS011;40928;51.076;7.950;2023-12-20T02:15:04;3.63;;;1.48;;
55031;SDS011;40928;51.076;7.950;2023-12-20T02:17:31;4.82;;;1.40;;
55031;SDS011;40928;51.076;7.950;2023-12-20T02:19:57;4.80;;;1.25;;
55031;SDS011;40928;51.076;7.950;2023-12-20T02:22:22;3.15;;;1.10;;
55031;SDS011;40928;51.076;7.950;2023-12-20T02:24:48;6.07;;;1.40;;
55031;SDS011;40928;51.076;7.950;2023-12-20T02:27:13;6.50;;;1.40;;
55031;SDS011;40928;51.076;7.950;2023-12-20T02:29:43;4.30;;;1.60;;
55031;SDS011;40928;51.076;7.950;2023-12-20T02:32:08;6.32;;;1.33;;
55031;SDS011;40928;51.076;7.950;2023-12-20T02:34:33;6.82;;;1.95;;
55031;SDS011;40928;51.076;7.950;2023-12-20T02:36:59;4.60;;;1.83;;
55031;SDS011;40928;51.076;7.950;2023-12-20T02:39:25;3.92;;;1.58;;
55031;SDS011;40928;51.076;7.950;2023-12-20T02:41:50;4.30;;;1.50;;
55031;SDS011;40928;51.076;7.950;2023-12-20T02:44:16;10.70;;;1.73;;
55031;SDS011;40928;51.076;7.950;2023-12-20T02:46:41;4.28;;;1.30;;
55031;SDS011;40928;51.076;7.950;2023-12-20T02:49:07;1.60;;;1.00;;
55031;SDS011;40928;51.076;7.950;2023-12-20T02:51:32;4.03;;;1.20;;
55031;SDS011;40928;51.076;7.950;2023-12-20T02:53:58;14.13;;;1.98;;
55031;SDS011;40928;51.076;7.950;2023-12-20T02:56:23;4.53;;;1.33;;
55031;SDS011;40928;51.076;7.950;2023-12-20T02:58:49;4.82;;;1.70;;
55031;SDS011;40928;51.076;7.950;2023-12-20T03:01:14;5.28;;;2.00;;
55031;SDS011;40928;51.076;7.950;2023-12-20T03:03:40;7.75;;;2.50;;
55031;SDS011;40928;51.076;7.950;2023-12-20T03:06:05;8.05;;;1.98;;
55031;SDS011;40928;51.076;7.950;2023-12-20T03:08:31;3.20;;;1.30;;
55031;SDS011;40928;51.076;7.950;2023-12-20T03:10:56;8.85;;;1.67;;
55031;SDS011;40928;51.076;7.950;2023-12-20T03:13:21;6.88;;;2.35;;
55031;SDS011;40928;51.076;7.950;2023-12-20T03:15:47;8.15;;;2.70;;
55031;SDS011;40928;51.076;7.950;2023-12-20T03:18:12;5.57;;;2.75;;
55031;SDS011;40928;51.076;7.950;2023-12-20T03:20:38;6.55;;;3.13;;
55031;SDS011;40928;51.076;7.950;2023-12-20T03:23:03;6.10;;;3.13;;
55031;SDS011;40928;51.076;7.950;2023-12-20T03:25:29;7.32;;;2.78;;
55031;SDS011;40928;51.076;7.950;2023-12-20T03:27:55;6.43;;;3.03;;
55031;SDS011;40928;51.076;7.950;2023-12-20T03:30:20;6.80;;;3.78;;
55031;SDS011;40928;51.076;7.950;2023-12-20T03:32:46;6.78;;;3.47;;
55031;SDS011;40928;51.076;7.950;2023-12-20T03:35:12;11.45;;;3.92;;
55031;SDS011;40928;51.076;7.950;2023-12-20T03:37:38;6.57;;;4.05;;
55031;SDS011;40928;51.076;7.950;2023-12-20T03:40:04;13.02;;;4.45;;
55031;SDS011;40928;51.076;7.950;2023-12-20T03:42:30;10.77;;;4.07;;
55031;SDS011;40928;51.076;7.950;2023-12-20T03:44:56;9.85;;;4.00;;
55031;SDS011;40928;51.076;7.950;2023-12-20T03:47:21;12.20;;;5.10;;
55031;SDS011;40928;51.076;7.950;2023-12-20T03:49:47;6.35;;;4.38;;
55031;SDS011;40928;51.076;7.950;2023-12-20T03:52:12;9.77;;;3.53;;
55031;SDS011;40928;51.076;7.950;2023-12-20T03:54:38;8.35;;;3.03;;
55031;SDS011;40928;51.076;7.950;2023-12-20T03:57:03;10.63;;;3.22;;
55031;SDS011;40928;51.076;7.950;2023-12-20T03:59:29;6.50;;;3.47;;
55031;SDS011;40928;51.076;7.950;2023-12-20T04:01:55;6.82;;;3.30;;
55031;SDS011;40928;51.076;7.950;2023-12-20T04:04:21;4.53;;;3.05;;
55031;SDS011;40928;51.076;7.950;2023-12-20T04:06:46;5.85;;;2.53;;
55031;SDS011;40928;51.076;7.950;2023-12-20T04:09:12;6.88;;;3.05;;
55031;SDS011;40928;51.076;7.950;2023-12-20T04:11:37;7.07;;;3.03;;
55031;SDS011;40928;51.076;7.950;2023-12-20T04:14:03;7.60;;;2.63;;
55031;SDS011;40928;51.076;7.950;2023-12-20T04:16:30;9.25;;;2.05;;
55031;SDS011;40928;51.076;7.950;2023-12-20T04:18:55;7.57;;;2.17;;
55031;SDS011;40928;51.076;7.950;2023-12-20T04:21:21;5.68;;;2.22;;
55031;SDS011;40928;51.076;7.950;2023-12-20T04:23:46;7.65;;;2.40;;
55031;SDS011;40928;51.076;7.950;2023-12-20T04:26:12;9.15;;;2.35;;
55031;SDS011;40928;51.076;7.950;2023-12-20T04:28:37;16.08;;;2.90;;
55031;SDS011;40928;51.076;7.950;2023-12-20T04:31:03;5.28;;;2.00;;
55031;SDS011;40928;51.076;7.950;2023-12-20T04:33:28;5.72;;;2.15;;
55031;SDS011;40928;51.076;7.950;2023-12-20T04:35:54;9.55;;;2.42;;
55031;SDS011;40928;51.076;7.950;2023-12-20T04:38:19;9.13;;;2.53;;
55031;SDS011;40928;51.076;7.950;2023-12-20T04:40:45;6.30;;;2.40;;
55031;SDS011;40928;51.076;7.950;2023-12-20T04:43:10;12.02;;;2.55;;
55031;SDS011;40928;51.076;7.950;2023-12-20T04:45:36;5.80;;;2.55;;
55031;SDS011;40928;51.076;7.950;2023-12-20T04:48:02;7.18;;;2.53;;
55031;SDS011;40928;51.076;7.950;2023-12-20T04:50:27;6.80;;;2.50;;
55031;SDS011;40928;51.076;7.950;2023-12-20T04:52:53;8.18;;;2.25;;
55031;SDS011;40928;51.076;7.950;2023-12-20T04:55:19;6.72;;;2.03;;
55031;SDS011;40928;51.076;7.950;2023-12-20T04:57:45;6.47;;;1.83;;
55031;SDS011;40928;51.076;7.950;2023-12-20T05:00:10;12.15;;;1.80;;
55031;SDS011;40928;51.076;7.950;2023-12-20T05:02:37;10.45;;;1.88;;
55031;SDS011;40928;51.076;7.950;2023-12-20T05:05:03;9.27;;;2.40;;
55031;SDS011;40928;51.076;7.950;2023-12-20T05:07:28;6.25;;;1.98;;
55031;SDS011;40928;51.076;7.950;2023-12-20T05:09:54;9.43;;;2.60;;
55031;SDS011;40928;51.076;7.950;2023-12-20T05:12:19;5.28;;;2.58;;
55031;SDS011;40928;51.076;7.950;2023-12-20T05:14:45;14.77;;;3.22;;
55031;SDS011;40928;51.076;7.950;2023-12-20T05:17:11;7.93;;;2.60;;
55031;SDS011;40928;51.076;7.950;2023-12-20T05:19:37;13.68;;;3.13;;
55031;SDS011;40928;51.076;7.950;2023-12-20T05:22:02;9.50;;;2.83;;
55031;SDS011;40928;51.076;7.950;2023-12-20T05:24:28;11.20;;;2.97;;
55031;SDS011;40928;51.076;7.950;2023-12-20T05:26:53;7.38;;;2.95;;
55031;SDS011;40928;51.076;7.950;2023-12-20T05:29:19;13.45;;;2.67;;
55031;SDS011;40928;51.076;7.950;2023-12-20T05:31:45;8.85;;;2.72;;
55031;SDS011;40928;51.076;7.950;2023-12-20T05:34:10;7.40;;;2.47;;
55031;SDS011;40928;51.076;7.950;2023-12-20T05:36:36;16.38;;;3.38;;
55031;SDS011;40928;51.076;7.950;2023-12-20T05:39:02;6.40;;;2.80;;
55031;SDS011;40928;51.076;7.950;2023-12-20T05:41:33;12.20;;;2.83;;
55031;SDS011;40928;51.076;7.950;2023-12-20T05:43:58;8.63;;;2.65;;
55031;SDS011;40928;51.076;7.950;2023-12-20T05:46:24;11.57;;;2.72;;
55031;SDS011;40928;51.076;7.950;2023-12-20T05:48:50;10.77;;;2.75;;
55031;SDS011;40928;51.076;7.950;2023-12-20T05:51:16;12.23;;;2.92;;
55031;SDS011;40928;51.076;7.950;2023-12-20T05:53:43;10.52;;;2.90;;
55031;SDS011;40928;51.076;7.950;2023-12-20T05:56:09;9.75;;;2.95;;
55031;SDS011;40928;51.076;7.950;2023-12-20T05:58:35;16.35;;;2.65;;
55031;SDS011;40928;51.076;7.950;2023-12-20T06:01:05;9.45;;;2.08;;
55031;SDS011;40928;51.076;7.950;2023-12-20T06:03:30;12.75;;;2.85;;
55031;SDS011;40928;51.076;7.950;2023-12-20T06:05:56;6.95;;;2.63;;
55031;SDS011;40928;51.076;7.950;2023-12-20T06:08:22;10.82;;;2.45;;
55031;SDS011;40928;51.076;7.950;2023-12-20T06:10:48;8.23;;;2.85;;
55031;SDS011;40928;51.076;7.950;2023-12-20T06:13:14;8.25;;;2.65;;
55031;SDS011;40928;51.076;7.950;2023-12-20T06:15:39;13.52;;;2.55;;
55031;SDS011;40928;51.076;7.950;2023-12-20T06:18:07;16.13;;;2.97;;
55031;SDS011;40928;51.076;7.950;2023-12-20T06:20:33;9.52;;;2.50;;
55031;SDS011;40928;51.076;7.950;2023-12-20T06:22:58;8.45;;;2.80;;
55031;SDS011;40928;51.076;7.950;2023-12-20T06:25:24;15.48;;;3.17;;
55031;SDS011;40928;51.076;7.950;2023-12-20T06:27:50;19.88;;;3.50;;
55031;SDS011;40928;51.076;7.950;2023-12-20T06:30:16;17.13;;;3.42;;
55031;SDS011;40928;51.076;7.950;2023-12-20T06:32:41;11.90;;;3.28;;
55031;SDS011;40928;51.076;7.950;2023-12-20T06:35:08;15.52;;;3.22;;
55031;SDS011;40928;51.076;7.950;2023-12-20T06:37:34;12.98;;;2.60;;
55031;SDS011;40928;51.076;7.950;2023-12-20T06:40:00;14.00;;;3.00;;
55031;SDS011;40928;51.076;7.950;2023-12-20T06:42:25;14.57;;;2.80;;
55031;SDS011;40928;51.076;7.950;2023-12-20T06:44:51;10.98;;;2.83;;
55031;SDS011;40928;51.076;7.950;2023-12-20T06:47:16;13.65;;;2.88;;
55031;SDS011;40928;51.076;7.950;2023-12-20T06:49:41;15.68;;;4.20;;
55031;SDS011;40928;51.076;7.950;2023-12-20T06:52:07;12.55;;;3.58;;
55031;SDS011;40928;51.076;7.950;2023-12-20T06:54:33;8.98;;;3.40;;
55031;SDS011;40928;51.076;7.950;2023-12-20T06:56:59;12.75;;;3.08;;
55031;SDS011;40928;51.076;7.950;2023-12-20T06:59:25;12.10;;;3.05;;
55031;SDS011;40928;51.076;7.950;2023-12-20T07:01:51;12.82;;;2.90;;
55031;SDS011;40928;51.076;7.950;2023-12-20T07:04:17;18.50;;;3.25;;
55031;SDS011;40928;51.076;7.950;2023-12-20T07:06:47;7.18;;;2.38;;
55031;SDS011;40928;51.076;7.950;2023-12-20T07:09:13;6.57;;;2.80;;
55031;SDS011;40928;51.076;7.950;2023-12-20T07:11:39;10.43;;;2.45;;
55031;SDS011;40928;51.076;7.950;2023-12-20T07:14:04;8.68;;;2.67;;
55031;SDS011;40928;51.076;7.950;2023-12-20T07:16:30;8.90;;;3.13;;
55031;SDS011;40928;51.076;7.950;2023-12-20T07:18:55;9.73;;;2.53;;
55031;SDS011;40928;51.076;7.950;2023-12-20T07:21:22;12.15;;;3.08;;
55031;SDS011;40928;51.076;7.950;2023-12-20T07:23:47;10.85;;;2.72;;
55031;SDS011;40928;51.076;7.950;2023-12-20T07:26:13;10.45;;;2.85;;
55031;SDS011;40928;51.076;7.950;2023-12-20T07:28:38;11.55;;;2.33;;
55031;SDS011;40928;51.076;7.950;2023-12-20T07:31:05;7.15;;;2.40;;
55031;SDS011;40928;51.076;7.950;2023-12-20T07:33:31;12.02;;;3.00;;
55031;SDS011;40928;51.076;7.950;2023-12-20T07:35:56;9.90;;;2.70;;
55031;SDS011;40928;51.076;7.950;2023-12-20T07:38:22;9.57;;;3.05;;
55031;SDS011;40928;51.076;7.950;2023-12-20T07:40:47;9.70;;;3.05;;
55031;SDS011;40928;51.076;7.950;2023-12-20T07:43:13;14.65;;;3.28;;
55031;SDS011;40928;51.076;7.950;2023-12-20T07:45:38;13.77;;;3.28;;
55031;SDS011;40928;51.076;7.950;2023-12-20T07:48:04;15.73;;;3.83;;
55031;SDS011;40928;51.076;7.950;2023-12-20T07:50:31;12.48;;;3.83;;
55031;SDS011;40928;51.076;7.950;2023-12-20T07:52:56;10.85;;;3.35;;
55031;SDS011;40928;51.076;7.950;2023-12-20T07:55:24;10.73;;;4.00;;
55031;SDS011;40928;51.076;7.950;2023-12-20T07:57:50;13.55;;;3.70;;
55031;SDS011;40928;51.076;7.950;2023-12-20T08:00:15;8.68;;;3.50;;
55031;SDS011;40928;51.076;7.950;2023-12-20T08:02:41;10.73;;;3.55;;
55031;SDS011;40928;51.076;7.950;2023-12-20T08:05:06;18.00;;;3.70;;
55031;SDS011;40928;51.076;7.950;2023-12-20T08:07:32;11.07;;;3.42;;
55031;SDS011;40928;51.076;7.950;2023-12-20T08:09:58;17.80;;;3.45;;
55031;SDS011;40928;51.076;7.950;2023-12-20T08:12:24;12.10;;;3.28;;
55031;SDS011;40928;51.076;7.950;2023-12-20T08:14:52;14.55;;;3.97;;
55031;SDS011;40928;51.076;7.950;2023-12-20T08:17:18;11.40;;;3.55;;
55031;SDS011;40928;51.076;7.950;2023-12-20T08:19:44;19.95;;;4.60;;
55031;SDS011;40928;51.076;7.950;2023-12-20T08:22:09;15.48;;;2.67;;
55031;SDS011;40928;51.076;7.950;2023-12-20T08:24:36;12.07;;;2.85;;
55031;SDS011;40928;51.076;7.950;2023-12-20T08:27:02;10.85;;;2.80;;
55031;SDS011;40928;51.076;7.950;2023-12-20T08:29:27;12.75;;;2.45;;
55031;SDS011;40928;51.076;7.950;2023-12-20T08:31:53;13.13;;;2.75;;
55031;SDS011;40928;51.076;7.950;2023-12-20T08:34:20;12.90;;;2.72;;
55031;SDS011;40928;51.076;7.950;2023-12-20T08:36:46;21.40;;;2.92;;
55031;SDS011;40928;51.076;7.950;2023-12-20T08:39:12;12.07;;;2.72;;
55031;SDS011;40928;51.076;7.950;2023-12-20T08:41:37;7.18;;;2.70;;
55031;SDS011;40928;51.076;7.950;2023-12-20T08:44:03;11.88;;;2.85;;
55031;SDS011;40928;51.076;7.950;2023-12-20T08:46:28;9.82;;;2.17;;
55031;SDS011;40928;51.076;7.950;2023-12-20T08:48:54;10.30;;;2.65;;
55031;SDS011;40928;51.076;7.950;2023-12-20T08:51:19;11.85;;;2.55;;
55031;SDS011;40928;51.076;7.950;2023-12-20T08:53:46;11.27;;;2.70;;
55031;SDS011;40928;51.076;7.950;2023-12-20T08:56:13;13.13;;;3.17;;
55031;SDS011;40928;51.076;7.950;2023-12-20T08:58:38;11.00;;;2.67;;
55031;SDS011;40928;51.076;7.950;2023-12-20T09:01:04;12.55;;;3.10;;
55031;SDS011;40928;51.076;7.950;2023-12-20T09:03:29;13.15;;;2.83;;
55031;SDS011;40928;51.076;7.950;2023-12-20T09:05:54;13.55;;;3.08;;
55031;SDS011;40928;51.076;7.950;2023-12-20T09:08:20;12.85;;;2.63;;
55031;SDS011;40928;51.076;7.950;2023-12-20T09:10:45;12.32;;;3.17;;
55031;SDS011;40928;51.076;7.950;2023-12-20T09:13:11;11.27;;;2.63;;
55031;SDS011;40928;51.076;7.950;2023-12-20T09:15:37;10.20;;;3.30;;
55031;SDS011;40928;51.076;7.950;2023-12-20T09:18:02;11.40;;;2.85;;
55031;SDS011;40928;51.076;7.950;2023-12-20T09:20:28;10.80;;;3.28;;
55031;SDS011;40928;51.076;7.950;2023-12-20T09:22:54;15.13;;;3.90;;
55031;SDS011;40928;51.076;7.950;2023-12-20T09:25:19;11.52;;;3.03;;
55031;SDS011;40928;51.076;7.950;2023-12-20T09:27:45;11.95;;;3.85;;
55031;SDS011;40928;51.076;7.950;2023-12-20T09:30:10;14.10;;;3.25;;
55031;SDS011;40928;51.076;7.950;2023-12-20T09:32:36;14.65;;;3.40;;
55031;SDS011;40928;51.076;7.950;2023-12-20T09:35:02;11.60;;;2.88;;
55031;SDS011;40928;51.076;7.950;2023-12-20T09:37:27;15.45;;;3.13;;
55031;SDS011;40928;51.076;7.950;2023-12-20T09:39:53;18.60;;;3.47;;
55031;SDS011;40928;51.076;7.950;2023-12-20T09:42:38;10.60;;;3.08;;
55031;SDS011;40928;51.076;7.950;2023-12-20T09:45:13;12.05;;;2.88;;
55031;SDS011;40928;51.076;7.950;2023-12-20T09:47:42;6.63;;;2.67;;
55031;SDS011;40928;51.076;7.950;2023-12-20T09:50:08;17.90;;;3.72;;
55031;SDS011;40928;51.076;7.950;2023-12-20T09:52:35;15.80;;;4.50;;
55031;SDS011;40928;51.076;7.950;2023-12-20T09:55:02;13.13;;;3.70;;
55031;SDS011;40928;51.076;7.950;2023-12-20T09:57:31;16.80;;;4.57;;
55031;SDS011;40928;51.076;7.950;2023-12-20T09:59:57;10.18;;;3.58;;
55031;SDS011;40928;51.076;7.950;2023-12-20T10:02:23;15.93;;;3.22;;
55031;SDS011;40928;51.076;7.950;2023-12-20T10:04:52;16.63;;;4.78;;
55031;SDS011;40928;51.076;7.950;2023-12-20T10:07:19;15.90;;;3.92;;
55031;SDS011;40928;51.076;7.950;2023-12-20T10:09:45;13.07;;;3.90;;
55031;SDS011;40928;51.076;7.950;2023-12-20T10:12:12;13.43;;;4.30;;
55031;SDS011;40928;51.076;7.950;2023-12-20T10:14:38;15.15;;;4.03;;
55031;SDS011;40928;51.076;7.950;2023-12-20T10:17:04;16.05;;;3.78;;
55031;SDS011;40928;51.076;7.950;2023-12-20T10:19:31;9.77;;;4.20;;
55031;SDS011;40928;51.076;7.950;2023-12-20T10:22:00;10.32;;;3.63;;
55031;SDS011;40928;51.076;7.950;2023-12-20T10:24:28;12.63;;;3.85;;
55031;SDS011;40928;51.076;7.950;2023-12-20T10:27:04;10.18;;;3.50;;
55031;SDS011;40928;51.076;7.950;2023-12-20T10:29:37;23.65;;;4.00;;
55031;SDS011;40928;51.076;7.950;2023-12-20T10:32:22;9.43;;;3.58;;
55031;SDS011;40928;51.076;7.950;2023-12-20T10:34:53;8.82;;;3.22;;
55031;SDS011;40928;51.076;7.950;2023-12-20T10:37:19;6.93;;;2.78;;
55031;SDS011;40928;51.076;7.950;2023-12-20T10:39:49;16.00;;;3.65;;
55031;SDS011;40928;51.076;7.950;2023-12-20T10:42:26;13.90;;;3.13;;
55031;SDS011;40928;51.076;7.950;2023-12-20T10:44:52;13.98;;;4.15;;
55031;SDS011;40928;51.076;7.950;2023-12-20T10:47:21;13.05;;;3.78;;
55031;SDS011;40928;51.076;7.950;2023-12-20T10:49:49;9.30;;;2.90;;
55031;SDS011;40928;51.076;7.950;2023-12-20T10:52:17;12.95;;;3.50;;
55031;SDS011;40928;51.076;7.950;2023-12-20T10:54:43;13.90;;;3.67;;
55031;SDS011;40928;51.076;7.950;2023-12-20T10:57:10;14.05;;;3.38;;
55031;SDS011;40928;51.076;7.950;2023-12-20T10:59:36;14.45;;;2.88;;
55031;SDS011;40928;51.076;7.950;2023-12-20T11:02:03;10.02;;;2.95;;
55031;SDS011;40928;51.076;7.950;2023-12-20T11:07:28;7.72;;;3.33;;
55031;SDS011;40928;51.076;7.950;2023-12-20T11:09:59;7.35;;;2.88;;
55031;SDS011;40928;51.076;7.950;2023-12-20T11:15:03;10.43;;;4.13;;
55031;SDS011;40928;51.076;7.950;2023-12-20T11:17:31;17.10;;;4.25;;
55031;SDS011;40928;51.076;7.950;2023-12-20T11:22:24;14.82;;;3.95;;
55031;SDS011;40928;51.076;7.950;2023-12-20T11:24:50;16.88;;;4.60;;
55031;SDS011;40928;51.076;7.950;2023-12-20T11:27:18;13.20;;;4.93;;
55031;SDS011;40928;51.076;7.950;2023-12-20T11:29:51;10.38;;;3.95;;
55031;SDS011;40928;51.076;7.950;2023-12-20T11:34:50;11.30;;;3.63;;
55031;SDS011;40928;51.076;7.950;2023-12-20T11:37:16;9.68;;;4.13;;
55031;SDS011;40928;51.076;7.950;2023-12-20T11:39:45;12.45;;;3.75;;
55031;SDS011;40928;51.076;7.950;2023-12-20T11:42:10;5.45;;;3.20;;
55031;SDS011;40928;51.076;7.950;2023-12-20T11:44:36;7.28;;;3.08;;
55031;SDS011;40928;51.076;7.950;2023-12-20T11:47:02;6.43;;;2.72;;
55031;SDS011;40928;51.076;7.950;2023-12-20T11:49:28;8.68;;;3.70;;
55031;SDS011;40928;51.076;7.950;2023-12-20T11:51:57;6.55;;;3.80;;
55031;SDS011;40928;51.076;7.950;2023-12-20T11:54:22;10.10;;;2.88;;
55031;SDS011;40928;51.076;7.950;2023-12-20T11:56:48;9.35;;;3.30;;
55031;SDS011;40928;51.076;7.950;2023-12-20T11:59:13;5.78;;;3.08;;
55031;SDS011;40928;51.076;7.950;2023-12-20T12:01:40;9.45;;;3.78;;
55031;SDS011;40928;51.076;7.950;2023-12-20T12:04:14;12.20;;;3.63;;
55031;SDS011;40928;51.076;7.950;2023-12-20T12:06:40;8.60;;;3.50;;
55031;SDS011;40928;51.076;7.950;2023-12-20T12:09:06;12.93;;;4.50;;
55031;SDS011;40928;51.076;7.950;2023-12-20T12:11:31;9.85;;;4.70;;
55031;SDS011;40928;51.076;7.950;2023-12-20T12:13:57;10.43;;;4.15;;
55031;SDS011;40928;51.076;7.950;2023-12-20T12:16:22;10.23;;;3.85;;
55031;SDS011;40928;51.076;7.950;2023-12-20T12:18:57;11.00;;;3.63;;
55031;SDS011;40928;51.076;7.950;2023-12-20T12:21:23;8.70;;;4.18;;
55031;SDS011;40928;51.076;7.950;2023-12-20T12:23:49;5.95;;;3.20;;
55031;SDS011;40928;51.076;7.950;2023-12-20T12:26:15;11.63;;;3.45;;
55031;SDS011;40928;51.076;7.950;2023-12-20T12:28:40;5.03;;;2.53;;
55031;SDS011;40928;51.076;7.950;2023-12-20T12:31:07;8.27;;;2.80;;
55031;SDS011;40928;51.076;7.950;2023-12-20T12:33:33;11.60;;;3.05;;
55031;SDS011;40928;51.076;7.950;2023-12-20T12:36:00;9.15;;;2.80;;
55031;SDS011;40928;51.076;7.950;2023-12-20T12:38:26;6.53;;;2.83;;
55031;SDS011;40928;51.076;7.950;2023-12-20T12:40:52;8.43;;;3.05;;
55031;SDS011;40928;51.076;7.950;2023-12-20T12:43:19;5.95;;;2.95;;
55031;SDS011;40928;51.076;7.950;2023-12-20T12:45:45;6.07;;;2.75;;
55031;SDS011;40928;51.076;7.950;2023-12-20T12:48:10;6.68;;;2.53;;
55031;SDS011;40928;51.076;7.950;2023-12-20T12:50:36;7.38;;;2.95;;
55031;SDS011;40928;51.076;7.950;2023-12-20T12:53:02;5.05;;;2.72;;
55031;SDS011;40928;51.076;7.950;2023-12-20T12:55:28;5.70;;;2.95;;
55031;SDS011;40928;51.076;7.950;2023-12-20T12:57:53;8.20;;;2.90;;
55031;SDS011;40928;51.076;7.950;2023-12-20T13:00:19;7.82;;;2.85;;
55031;SDS011;40928;51.076;7.950;2023-12-20T13:02:45;8.23;;;3.00;;
55031;SDS011;40928;51.076;7.950;2023-12-20T13:05:10;8.23;;;3.38;;
55031;SDS011;40928;51.076;7.950;2023-12-20T13:07:36;9.38;;;3.03;;
55031;SDS011;40928;51.076;7.950;2023-12-20T13:10:02;7.15;;;3.33;;
55031;SDS011;40928;51.076;7.950;2023-12-20T13:12:29;9.15;;;3.30;;
55031;SDS011;40928;51.076;7.950;2023-12-20T13:14:54;11.35;;;3.15;;
55031;SDS011;40928;51.076;7.950;2023-12-20T13:17:20;6.72;;;2.70;;
55031;SDS011;40928;51.076;7.950;2023-12-20T13:19:46;10.77;;;3.35;;
55031;SDS011;40928;51.076;7.950;2023-12-20T13:22:11;7.35;;;2.85;;
55031;SDS011;40928;51.076;7.950;2023-12-20T13:24:37;3.65;;;2.40;;
55031;SDS011;40928;51.076;7.950;2023-12-20T13:27:02;9.77;;;2.67;;
55031;SDS011;40928;51.076;7.950;2023-12-20T13:29:28;7.18;;;2.20;;
55031;SDS011;40928;51.076;7.950;2023-12-20T13:31:54;7.95;;;2.10;;
55031;SDS011;40928;51.076;7.950;2023-12-20T13:34:19;5.75;;;2.83;;
55031;SDS011;40928;51.076;7.950;2023-12-20T13:36:45;7.85;;;2.70;;
55031;SDS011;40928;51.076;7.950;2023-12-20T13:39:12;5.50;;;2.40;;
55031;SDS011;40928;51.076;7.950;2023-12-20T13:41:39;6.50;;;2.58;;
55031;SDS011;40928;51.076;7.950;2023-12-20T13:44:04;6.18;;;2.67;;
55031;SDS011;40928;51.076;7.950;2023-12-20T13:46:30;6.03;;;3.08;;
55031;SDS011;40928;51.076;7.950;2023-12-20T13:48:56;4.80;;;2.80;;
55031;SDS011;40928;51.076;7.950;2023-12-20T13:51:22;8.48;;;2.85;;
55031;SDS011;40928;51.076;7.950;2023-12-20T13:53:48;10.88;;;3.05;;
55031;SDS011;40928;51.076;7.950;2023-12-20T13:56:14;8.65;;;3.03;;
55031;SDS011;40928;51.076;7.950;2023-12-20T13:58:40;5.50;;;2.70;;
55031;SDS011;40928;51.076;7.950;2023-12-20T14:01:07;5.63;;;3.95;;
55031;SDS011;40928;51.076;7.950;2023-12-20T14:03:33;7.45;;;3.40;;
55031;SDS011;40928;51.076;7.950;2023-12-20T14:05:59;13.93;;;3.40;;
55031;SDS011;40928;51.076;7.950;2023-12-20T14:08:26;5.20;;;3.63;;
55031;SDS011;40928;51.076;7.950;2023-12-20T14:10:52;9.20;;;3.60;;
55031;SDS011;40928;51.076;7.950;2023-12-20T14:13:18;9.32;;;3.33;;
55031;SDS011;40928;51.076;7.950;2023-12-20T14:15:44;7.43;;;3.20;;
55031;SDS011;40928;51.076;7.950;2023-12-20T14:18:09;6.55;;;3.13;;
55031;SDS011;40928;51.076;7.950;2023-12-20T14:20:35;7.65;;;3.05;;
55031;SDS011;40928;51.076;7.950;2023-12-20T14:23:01;5.80;;;3.00;;
55031;SDS011;40928;51.076;7.950;2023-12-20T14:25:27;5.97;;;3.10;;
55031;SDS011;40928;51.076;7.950;2023-12-20T14:27:53;5.65;;;2.38;;
55031;SDS011;40928;51.076;7.950;2023-12-20T14:30:18;12.52;;;2.78;;
55031;SDS011;40928;51.076;7.950;2023-12-20T14:32:44;5.18;;;2.20;;
55031;SDS011;40928;51.076;7.950;2023-12-20T14:35:09;7.88;;;3.00;;
55031;SDS011;40928;51.076;7.950;2023-12-20T14:37:35;6.97;;;2.60;;
55031;SDS011;40928;51.076;7.950;2023-12-20T14:40:05;3.55;;;2.30;;
55031;SDS011;40928;51.076;7.950;2023-12-20T14:42:31;7.22;;;2.78;;
55031;SDS011;40928;51.076;7.950;2023-12-20T14:44:57;5.45;;;2.80;;
55031;SDS011;40928;51.076;7.950;2023-12-20T14:47:23;6.65;;;2.95;;